Time;durP1;ratioP1;P1;durP2;ratioP2;P2;SDS_P1;SDS_P2;PMS_P1;PMS_P2;Temp;Humidity;BMP_temperature;BMP_pressure;BME280_temperature;BME280_humidity;BME280_pressure;Samples;Min_cycle;Max_cycle;Signal;HPM_P1;HPM_P2
2023/02/11 00:02:51;;;;;;;6.43;4.50;;;;;;;;;;5064183;28;20210;-48
2023/02/11 00:05:23;;;;;;;6.20;4.37;;;;;;;;;;5062133;28;20627;-48
2023/02/11 00:07:56;;;;;;;6.00;4.37;;;;;;;;;;5070464;28;20193;-48
2023/02/11 00:10:31;;;;;;;6.23;4.60;;;;;;;;;;5070160;28;20198;-48
2023/02/11 00:12:59;;;;;;;6.90;5.30;;;;;;;;;;5047399;28;20195;-48
2023/02/11 00:15:29;;;;;;;5.80;4.30;;;;;;;;;;5059747;28;20206;-48
2023/02/11 00:18:01;;;;;;;5.23;4.20;;;;;;;;;;5070390;28;20205;-48
2023/02/11 00:20:33;;;;;;;6.20;4.10;;;;;;;;;;5062213;28;20245;-48
2023/02/11 00:23:03;;;;;;;6.33;4.50;;;;;;;;;;5069970;28;20627;-48
2023/02/11 00:25:33;;;;;;;5.87;4.40;;;;;;;;;;5058729;28;20210;-48
2023/02/11 00:28:05;;;;;;;6.03;3.93;;;;;;;;;;5066451;28;20198;-48
2023/02/11 00:30:39;;;;;;;6.50;4.17;;;;;;;;;;5069128;28;20194;-48
2023/02/11 00:33:11;;;;;;;5.80;4.17;;;;;;;;;;5066431;28;20201;-48
2023/02/11 00:35:41;;;;;;;5.37;4.00;;;;;;;;;;5066494;28;20194;-48
2023/02/11 00:38:22;;;;;;;5.40;4.10;;;;;;;;;;5053237;28;20304;-48
2023/02/11 00:40:53;;;;;;;5.43;4.20;;;;;;;;;;5069736;28;20259;-48
2023/02/11 00:43:23;;;;;;;4.57;3.70;;;;;;;;;;5066011;28;20202;-48
2023/02/11 00:45:51;;;;;;;5.50;4.07;;;;;;;;;;5069388;28;20626;-48
2023/02/11 00:48:25;;;;;;;4.67;3.70;;;;;;;;;;5069970;28;20661;-48
2023/02/11 00:50:58;;;;;;;4.70;3.47;;;;;;;;;;5065831;28;20643;-48
2023/02/11 00:53:27;;;;;;;4.70;3.83;;;;;;;;;;5066385;28;20228;-48
2023/02/11 00:56:00;;;;;;;4.80;3.83;;;;;;;;;;5069720;28;20220;-48
2023/02/11 00:58:40;;;;;;;3.73;3.10;;;;;;;;;;5053674;28;20205;-48
2023/02/11 01:01:13;;;;;;;4.53;3.53;;;;;;;;;;5059253;28;20186;-48
2023/02/11 01:03:42;;;;;;;4.20;3.40;;;;;;;;;;5062073;28;20241;-48
2023/02/11 01:06:13;;;;;;;4.50;3.53;;;;;;;;;;5068431;28;20194;-48
2023/02/11 01:08:43;;;;;;;4.80;3.73;;;;;;;;;;5063382;28;20630;-48
2023/02/11 01:11:17;;;;;;;6.33;3.80;;;;;;;;;;5065444;28;20201;-48
2023/02/11 01:13:49;;;;;;;4.50;3.43;;;;;;;;;;5046247;28;20702;-48
2023/02/11 01:16:20;;;;;;;5.93;3.13;;;;;;;;;;5069619;28;20645;-49
2023/02/11 01:18:53;;;;;;;6.33;3.50;;;;;;;;;;5051569;28;20276;-48
2023/02/11 01:21:25;;;;;;;4.53;3.30;;;;;;;;;;5067560;28;20210;-48
2023/02/11 01:23:55;;;;;;;6.23;3.60;;;;;;;;;;5067648;28;20652;-48
2023/02/11 01:26:25;;;;;;;5.93;3.40;;;;;;;;;;5064883;28;20213;-48
2023/02/11 01:28:59;;;;;;;3.67;3.10;;;;;;;;;;5068898;28;20190;-48
2023/02/11 01:31:32;;;;;;;6.07;3.40;;;;;;;;;;5065967;28;20202;-48
2023/02/11 01:34:04;;;;;;;4.17;3.03;;;;;;;;;;5068910;28;20288;-48
2023/02/11 01:36:32;;;;;;;4.83;3.60;;;;;;;;;;5068213;28;20691;-48
2023/02/11 01:39:02;;;;;;;4.00;2.93;;;;;;;;;;5065139;28;20418;-48
2023/02/11 01:41:32;;;;;;;4.30;3.13;;;;;;;;;;5064747;28;20653;-48
2023/02/11 01:44:22;;;;;;;4.17;3.27;;;;;;;;;;5067164;28;20201;-48
2023/02/11 01:46:55;;;;;;;3.77;2.93;;;;;;;;;;5066121;28;20190;-48
2023/02/11 01:49:43;;;;;;;4.40;3.07;;;;;;;;;;5057527;28;20251;-48
2023/02/11 01:52:29;;;;;;;4.50;2.93;;;;;;;;;;5058782;28;20286;-48
2023/02/11 01:57:55;;;;;;;4.13;3.03;;;;;;;;;;5041071;28;20274;-48
2023/02/11 02:00:28;;;;;;;5.23;3.03;;;;;;;;;;5067377;28;20216;-48
2023/02/11 02:03:15;;;;;;;4.77;3.57;;;;;;;;;;5059495;28;20217;-48
2023/02/11 02:06:02;;;;;;;3.73;2.80;;;;;;;;;;5066751;28;20197;-48
2023/02/11 02:08:49;;;;;;;4.60;3.07;;;;;;;;;;5068533;28;20732;-48
2023/02/11 02:11:18;;;;;;;4.33;3.00;;;;;;;;;;5063969;28;20190;-48
2023/02/11 02:13:48;;;;;;;5.30;2.60;;;;;;;;;;5063586;28;20213;-48
2023/02/11 02:16:20;;;;;;;4.53;2.63;;;;;;;;;;5067859;28;20217;-48
2023/02/11 02:19:00;;;;;;;5.37;2.70;;;;;;;;;;5067932;28;20197;-48
2023/02/11 02:21:48;;;;;;;3.73;2.67;;;;;;;;;;5063603;28;20615;-48
2023/02/11 02:24:27;;;;;;;3.17;2.47;;;;;;;;;;5066526;28;20217;-48
2023/02/11 02:27:16;;;;;;;3.80;2.60;;;;;;;;;;5046782;28;20557;-48
2023/02/11 02:30:06;;;;;;;3.43;2.40;;;;;;;;;;5068962;28;20217;-49
2023/02/11 02:32:36;;;;;;;3.97;2.57;;;;;;;;;;5066903;28;20527;-48
2023/02/11 02:35:15;;;;;;;3.33;2.33;;;;;;;;;;5064778;28;20186;-48
2023/02/11 02:38:01;;;;;;;4.73;2.97;;;;;;;;;;5061016;28;20308;-48
2023/02/11 02:40:37;;;;;;;5.07;2.57;;;;;;;;;;5067344;28;20591;-48
2023/02/11 02:43:06;;;;;;;3.47;2.13;;;;;;;;;;5049430;28;20220;-48
2023/02/11 02:45:39;;;;;;;4.67;2.40;;;;;;;;;;5045501;28;20190;-48
2023/02/11 02:48:07;;;;;;;3.50;2.50;;;;;;;;;;5058609;28;20217;-48
2023/02/11 02:50:38;;;;;;;3.43;2.37;;;;;;;;;;5060084;28;20273;-48
2023/02/11 02:53:25;;;;;;;4.37;2.60;;;;;;;;;;5048804;28;20244;-48
2023/02/11 02:56:18;;;;;;;2.90;2.60;;;;;;;;;;5067139;28;20206;-48
2023/02/11 02:59:06;;;;;;;3.67;2.40;;;;;;;;;;5065747;28;20191;-48
2023/02/11 03:01:40;;;;;;;3.00;2.43;;;;;;;;;;5063606;28;20746;-48
2023/02/11 03:04:32;;;;;;;3.40;2.67;;;;;;;;;;5066869;28;20233;-48
2023/02/11 03:07:08;;;;;;;3.17;2.07;;;;;;;;;;5037499;28;20263;-48
2023/02/11 03:09:43;;;;;;;3.43;2.20;;;;;;;;;;5061726;28;20205;-48
2023/02/11 03:12:15;;;;;;;4.53;2.77;;;;;;;;;;5065285;28;20200;-48
2023/02/11 03:14:49;;;;;;;3.23;2.47;;;;;;;;;;5063325;28;20221;-48
2023/02/11 03:17:23;;;;;;;3.30;2.10;;;;;;;;;;5057033;28;20209;-48
2023/02/11 03:19:53;;;;;;;4.10;2.47;;;;;;;;;;5055812;28;20218;-48
2023/02/11 03:22:29;;;;;;;3.67;1.90;;;;;;;;;;5067230;28;20189;-48
2023/02/11 03:25:02;;;;;;;2.90;2.20;;;;;;;;;;5049360;28;20189;-48
2023/02/11 03:27:38;;;;;;;3.77;2.30;;;;;;;;;;5062930;28;20205;-48
2023/02/11 03:30:29;;;;;;;2.50;2.03;;;;;;;;;;5066262;28;20277;-48
2023/02/11 03:33:05;;;;;;;4.20;2.23;;;;;;;;;;5055226;28;20205;-48
2023/02/11 03:35:38;;;;;;;3.90;2.23;;;;;;;;;;5070076;28;20284;-48
2023/02/11 03:38:29;;;;;;;4.07;2.10;;;;;;;;;;5067571;28;20241;-48
2023/02/11 03:41:02;;;;;;;3.00;2.17;;;;;;;;;;5052856;28;20271;-48
2023/02/11 03:43:35;;;;;;;3.30;2.13;;;;;;;;;;5071939;28;20189;-48
2023/02/11 03:46:08;;;;;;;3.47;2.17;;;;;;;;;;5051472;28;20190;-48
2023/02/11 03:48:41;;;;;;;2.97;2.30;;;;;;;;;;5071960;28;20190;-48
2023/02/11 03:51:14;;;;;;;4.20;1.90;;;;;;;;;;5065608;28;20216;-47
2023/02/11 03:53:43;;;;;;;4.17;1.97;;;;;;;;;;5070693;28;20193;-48
2023/02/11 03:56:19;;;;;;;3.60;2.10;;;;;;;;;;5054759;28;20588;-48
2023/02/11 03:58:50;;;;;;;2.40;1.60;;;;;;;;;;5050369;28;20200;-48
2023/02/11 04:01:23;;;;;;;3.50;2.17;;;;;;;;;;5060163;28;20247;-48
2023/02/11 04:03:55;;;;;;;2.77;1.87;;;;;;;;;;5049700;28;20210;-48
2023/02/11 04:06:26;;;;;;;3.23;2.10;;;;;;;;;;5077426;28;20193;-48
2023/02/11 04:08:55;;;;;;;2.90;1.67;;;;;;;;;;5063827;28;20194;-48
2023/02/11 04:11:27;;;;;;;3.17;2.10;;;;;;;;;;5067304;28;20201;-48
2023/02/11 04:13:57;;;;;;;1.73;1.63;;;;;;;;;;5066802;28;20653;-48
2023/02/11 04:16:28;;;;;;;2.50;1.87;;;;;;;;;;5071014;28;20193;-48
2023/02/11 04:19:00;;;;;;;4.60;2.10;;;;;;;;;;5070351;28;20232;-47
2023/02/11 04:21:35;;;;;;;2.83;1.60;;;;;;;;;;5070168;28;20206;-48
2023/02/11 04:24:05;;;;;;;3.37;1.87;;;;;;;;;;5070681;28;20888;-48
2023/02/11 04:26:38;;;;;;;2.87;2.07;;;;;;;;;;5068092;28;20632;-47
2023/02/11 04:29:08;;;;;;;3.13;1.80;;;;;;;;;;5050413;28;20756;-48
2023/02/11 04:31:39;;;;;;;3.23;1.93;;;;;;;;;;5070824;28;20206;-48
2023/02/11 04:34:09;;;;;;;2.70;1.70;;;;;;;;;;5053226;28;20190;-48
2023/02/11 04:36:43;;;;;;;2.00;1.80;;;;;;;;;;5070557;28;20704;-48
2023/02/11 04:39:14;;;;;;;3.33;1.97;;;;;;;;;;5060539;28;20278;-49
2023/02/11 04:41:46;;;;;;;2.90;2.10;;;;;;;;;;5069315;28;20213;-48
2023/02/11 04:44:15;;;;;;;2.17;1.60;;;;;;;;;;5069018;28;20626;-49
2023/02/11 04:46:47;;;;;;;3.83;2.03;;;;;;;;;;5070319;28;20214;-48
2023/02/11 04:49:15;;;;;;;2.73;1.80;;;;;;;;;;5039779;28;20611;-49
2023/02/11 04:51:47;;;;;;;2.63;1.60;;;;;;;;;;5070607;28;20648;-48
2023/02/11 04:54:20;;;;;;;2.53;1.60;;;;;;;;;;5070037;28;20225;-48
2023/02/11 04:56:53;;;;;;;3.20;2.20;;;;;;;;;;5064532;28;20202;-48
2023/02/11 04:59:25;;;;;;;2.30;1.60;;;;;;;;;;5065974;28;20205;-48
2023/02/11 05:01:54;;;;;;;3.10;1.77;;;;;;;;;;5048734;28;20237;-48
2023/02/11 05:04:28;;;;;;;2.83;2.10;;;;;;;;;;5069378;28;20217;-48
2023/02/11 05:07:00;;;;;;;3.87;1.77;;;;;;;;;;5070396;28;20209;-48
2023/02/11 05:09:32;;;;;;;2.67;1.90;;;;;;;;;;5067796;28;20194;-48
2023/02/11 05:12:04;;;;;;;2.70;1.77;;;;;;;;;;5057882;28;20261;-48
2023/02/11 05:14:35;;;;;;;3.30;1.53;;;;;;;;;;5045824;28;20646;-48
2023/02/11 05:17:05;;;;;;;2.17;1.50;;;;;;;;;;5061661;28;20393;-48
2023/02/11 05:19:33;;;;;;;2.03;1.60;;;;;;;;;;5045772;28;20194;-48
2023/02/11 05:22:06;;;;;;;2.60;1.53;;;;;;;;;;5067854;28;20681;-48
2023/02/11 05:24:38;;;;;;;2.70;1.77;;;;;;;;;;5069158;28;20221;-48
2023/02/11 05:27:09;;;;;;;3.63;1.60;;;;;;;;;;5063735;28;20553;-48
2023/02/11 05:29:43;;;;;;;3.33;1.40;;;;;;;;;;5068348;28;20194;-48
2023/02/11 05:32:13;;;;;;;3.20;1.90;;;;;;;;;;5069846;28;20636;-48
2023/02/11 05:34:46;;;;;;;2.70;1.57;;;;;;;;;;5069407;28;20194;-48
2023/02/11 05:37:16;;;;;;;3.80;1.87;;;;;;;;;;5042736;28;20682;-48
2023/02/11 05:39:46;;;;;;;2.40;1.77;;;;;;;;;;5053687;28;20212;-48
2023/02/11 05:42:15;;;;;;;5.03;1.93;;;;;;;;;;5069104;28;20236;-48
2023/02/11 05:44:43;;;;;;;1.80;1.50;;;;;;;;;;5067528;28;20189;-48
2023/02/11 05:47:14;;;;;;;2.77;1.60;;;;;;;;;;5067431;28;20190;-48
2023/02/11 05:49:43;;;;;;;2.57;1.60;;;;;;;;;;5064249;28;20228;-48
2023/02/11 05:52:26;;;;;;;2.07;1.47;;;;;;;;;;5069737;28;20699;-48
2023/02/11 05:54:56;;;;;;;2.57;1.63;;;;;;;;;;5070276;28;20198;-48
2023/02/11 05:57:27;;;;;;;2.63;1.70;;;;;;;;;;5055635;28;20258;-48
2023/02/11 05:59:57;;;;;;;4.03;1.80;;;;;;;;;;5070262;28;20198;-48
2023/02/11 06:02:26;;;;;;;3.17;1.77;;;;;;;;;;5067116;28;20797;-49
2023/02/11 06:04:56;;;;;;;2.87;1.50;;;;;;;;;;5070016;28;20276;-48
2023/02/11 06:07:27;;;;;;;3.13;1.43;;;;;;;;;;5048874;28;20224;-48
2023/02/11 06:09:59;;;;;;;3.87;1.80;;;;;;;;;;5053009;28;20625;-48
2023/02/11 06:12:31;;;;;;;2.37;1.60;;;;;;;;;;5052562;28;20202;-48
2023/02/11 06:15:03;;;;;;;5.23;2.00;;;;;;;;;;5062783;28;20263;-48
2023/02/11 06:17:36;;;;;;;3.80;2.13;;;;;;;;;;5066781;28;20670;-48
2023/02/11 06:20:22;;;;;;;2.93;1.77;;;;;;;;;;5069396;28;20255;-48
2023/02/11 06:22:52;;;;;;;2.80;1.77;;;;;;;;;;5049671;28;20619;-48
2023/02/11 06:25:21;;;;;;;3.63;1.60;;;;;;;;;;5063886;28;20216;-48
2023/02/11 06:27:54;;;;;;;2.50;1.67;;;;;;;;;;5069267;28;20259;-48
2023/02/11 06:30:24;;;;;;;4.77;2.17;;;;;;;;;;5068231;28;20233;-48
2023/02/11 06:32:56;;;;;;;3.20;1.70;;;;;;;;;;5068354;28;20189;-48
2023/02/11 06:35:32;;;;;;;2.00;1.70;;;;;;;;;;5066147;28;20196;-48
2023/02/11 06:38:17;;;;;;;3.00;1.97;;;;;;;;;;5057646;28;20265;-48
2023/02/11 06:41:01;;;;;;;3.13;1.60;;;;;;;;;;5054194;28;20237;-48
2023/02/11 06:43:31;;;;;;;3.67;1.70;;;;;;;;;;5060119;28;20206;-48
2023/02/11 06:46:28;;;;;;;3.43;2.00;;;;;;;;;;5078674;28;20269;-47
2023/02/11 06:49:01;;;;;;;4.63;2.00;;;;;;;;;;5068103;28;20247;-48
2023/02/11 06:51:34;;;;;;;2.00;1.57;;;;;;;;;;5063727;28;20218;-48
2023/02/11 06:54:07;;;;;;;4.53;2.20;;;;;;;;;;5067710;28;20245;-48
2023/02/11 06:56:40;;;;;;;4.03;2.50;;;;;;;;;;5078552;28;20189;-45
2023/02/11 06:59:17;;;;;;;2.67;1.60;;;;;;;;;;5044287;28;20699;-45
2023/02/11 07:01:49;;;;;;;2.57;1.90;;;;;;;;;;5064950;28;20267;-45
2023/02/11 07:04:18;;;;;;;2.57;1.60;;;;;;;;;;5047310;28;20205;-45
2023/02/11 07:06:49;;;;;;;2.77;1.77;;;;;;;;;;5071823;28;20190;-45
2023/02/11 07:09:21;;;;;;;3.20;2.10;;;;;;;;;;5064634;28;20198;-45
2023/02/11 07:11:49;;;;;;;3.47;1.97;;;;;;;;;;5054098;28;20197;-44
2023/02/11 07:14:19;;;;;;;2.67;1.70;;;;;;;;;;5063359;28;20202;-44
2023/02/11 07:16:50;;;;;;;3.87;2.00;;;;;;;;;;5059484;28;20185;-45
2023/02/11 07:19:23;;;;;;;3.83;2.03;;;;;;;;;;5060616;28;20220;-45
2023/02/11 07:21:54;;;;;;;4.00;2.10;;;;;;;;;;5062979;28;20222;-45
2023/02/11 07:24:24;;;;;;;3.27;2.40;;;;;;;;;;5061347;28;20198;-44
2023/02/11 07:26:58;;;;;;;2.93;2.17;;;;;;;;;;5056114;28;20203;-45
2023/02/11 07:29:31;;;;;;;3.67;2.20;;;;;;;;;;5059991;28;20565;-45
2023/02/11 07:32:03;;;;;;;4.27;2.20;;;;;;;;;;5053489;28;20194;-45
2023/02/11 07:34:33;;;;;;;3.63;1.80;;;;;;;;;;5065841;28;20190;-45
2023/02/11 07:37:05;;;;;;;3.10;2.10;;;;;;;;;;5068081;28;20249;-48
2023/02/11 07:39:34;;;;;;;3.73;2.33;;;;;;;;;;5039013;28;20217;-48
2023/02/11 07:42:08;;;;;;;5.00;2.23;;;;;;;;;;5059983;28;20197;-45
2023/02/11 07:44:48;;;;;;;3.20;1.87;;;;;;;;;;5059040;28;20193;-45
2023/02/11 07:47:19;;;;;;;5.00;2.47;;;;;;;;;;5034238;28;20186;-48
2023/02/11 07:49:49;;;;;;;3.63;2.40;;;;;;;;;;5061142;28;20225;-48
2023/02/11 07:52:32;;;;;;;4.10;2.33;;;;;;;;;;5058237;28;20281;-48
2023/02/11 07:55:05;;;;;;;5.43;2.73;;;;;;;;;;5066222;28;20253;-48
2023/02/11 07:57:35;;;;;;;5.00;2.67;;;;;;;;;;5064750;28;20197;-48
2023/02/11 08:00:12;;;;;;;3.83;2.60;;;;;;;;;;5067383;28;20212;-48
2023/02/11 08:02:43;;;;;;;5.10;2.87;;;;;;;;;;5047983;28;20229;-48
2023/02/11 08:05:15;;;;;;;4.17;2.70;;;;;;;;;;5064921;28;20618;-45
2023/02/11 08:07:46;;;;;;;4.20;2.50;;;;;;;;;;5060367;28;20226;-45
2023/02/11 08:10:19;;;;;;;5.10;3.40;;;;;;;;;;5066993;28;20543;-45
2023/02/11 08:12:50;;;;;;;3.53;2.60;;;;;;;;;;5064648;28;20762;-45
2023/02/11 08:15:21;;;;;;;4.50;2.80;;;;;;;;;;5062216;28;20206;-48
2023/02/11 08:17:52;;;;;;;3.53;2.73;;;;;;;;;;5064648;28;20199;-48
2023/02/11 08:20:23;;;;;;;4.53;3.20;;;;;;;;;;5059404;28;20612;-48
2023/02/11 08:22:53;;;;;;;4.43;2.93;;;;;;;;;;5070625;28;20229;-48
2023/02/11 08:25:27;;;;;;;5.03;3.17;;;;;;;;;;5064119;28;20198;-48
2023/02/11 08:27:59;;;;;;;5.53;3.30;;;;;;;;;;5052377;28;20194;-48
2023/02/11 08:30:29;;;;;;;4.63;3.17;;;;;;;;;;5050427;28;20186;-45
2023/02/11 08:32:59;;;;;;;6.90;3.83;;;;;;;;;;5071187;28;20290;-45
2023/02/11 08:35:31;;;;;;;5.50;3.23;;;;;;;;;;5065374;28;20190;-48
2023/02/11 08:38:02;;;;;;;4.13;3.20;;;;;;;;;;5058192;28;20244;-48
2023/02/11 08:40:32;;;;;;;5.43;3.50;;;;;;;;;;5067555;28;20522;-48
2023/02/11 08:43:13;;;;;;;6.47;3.57;;;;;;;;;;5069338;28;20284;-48
2023/02/11 08:45:41;;;;;;;5.60;3.57;;;;;;;;;;5068692;28;20631;-48
2023/02/11 08:48:12;;;;;;;5.70;3.67;;;;;;;;;;5053568;28;20316;-48
2023/02/11 08:50:42;;;;;;;6.53;4.33;;;;;;;;;;5063098;28;20214;-45
2023/02/11 08:53:11;;;;;;;5.53;3.43;;;;;;;;;;5071826;28;20302;-45
2023/02/11 08:55:41;;;;;;;5.83;3.90;;;;;;;;;;5073700;28;20692;-45
2023/02/11 08:58:11;;;;;;;7.03;4.00;;;;;;;;;;5049181;28;20190;-44
2023/02/11 09:00:44;;;;;;;4.83;3.40;;;;;;;;;;5057012;28;20209;-48
2023/02/11 09:03:16;;;;;;;6.90;3.47;;;;;;;;;;5044711;28;20709;-48
2023/02/11 09:05:54;;;;;;;7.67;4.43;;;;;;;;;;5057653;28;20194;-44
2023/02/11 09:08:24;;;;;;;5.73;3.97;;;;;;;;;;5073327;28;20206;-45
2023/02/11 09:10:56;;;;;;;5.30;3.73;;;;;;;;;;5067806;28;20952;-45
2023/02/11 09:13:25;;;;;;;6.07;4.47;;;;;;;;;;5035992;28;20326;-45
2023/02/11 09:16:00;;;;;;;5.03;4.10;;;;;;;;;;5069933;28;20251;-45
2023/02/11 09:18:31;;;;;;;7.60;4.27;;;;;;;;;;5054132;28;20200;-45
2023/02/11 09:21:09;;;;;;;6.77;4.83;;;;;;;;;;5059278;28;20199;-48
2023/02/11 09:23:43;;;;;;;5.80;4.20;;;;;;;;;;5045130;28;20197;-48
2023/02/11 09:26:17;;;;;;;6.53;4.80;;;;;;;;;;5066704;28;20236;-48
2023/02/11 09:29:00;;;;;;;6.57;4.70;;;;;;;;;;5064160;28;20221;-48
2023/02/11 09:31:33;;;;;;;8.17;4.23;;;;;;;;;;5046914;28;20400;-48
2023/02/11 09:34:08;;;;;;;7.63;4.40;;;;;;;;;;5046334;28;20197;-48
2023/02/11 09:36:42;;;;;;;7.70;4.83;;;;;;;;;;5061943;28;20236;-45
2023/02/11 09:39:13;;;;;;;7.93;5.80;;;;;;;;;;5047910;28;20214;-45
2023/02/11 09:41:58;;;;;;;6.50;4.77;;;;;;;;;;5054602;28;20229;-45
2023/02/11 09:44:34;;;;;;;5.77;4.67;;;;;;;;;;5067235;28;20259;-45
2023/02/11 09:47:26;;;;;;;7.83;5.17;;;;;;;;;;5069020;28;20193;-48
2023/02/11 09:50:00;;;;;;;7.50;5.20;;;;;;;;;;5066563;28;20221;-48
2023/02/11 09:52:41;;;;;;;9.53;5.63;;;;;;;;;;5061182;28;20210;-45
2023/02/11 09:55:22;;;;;;;9.40;5.67;;;;;;;;;;5056849;28;20198;-45
2023/02/11 09:58:09;;;;;;;22.43;7.97;;;;;;;;;;5057224;28;20233;-45
2023/02/11 10:00:57;;;;;;;22.43;8.10;;;;;;;;;;5067950;28;20235;-45
2023/02/11 10:03:31;;;;;;;17.10;7.07;;;;;;;;;;5058798;28;20245;-45
2023/02/11 10:06:18;;;;;;;21.57;9.03;;;;;;;;;;5068380;28;20284;-44
2023/02/11 10:09:01;;;;;;;23.23;8.47;;;;;;;;;;5066134;28;20197;-44
2023/02/11 10:11:51;;;;;;;17.07;8.37;;;;;;;;;;5063820;28;20200;-45
2023/02/11 10:14:38;;;;;;;19.87;7.83;;;;;;;;;;5064767;28;20209;-45
2023/02/11 10:17:19;;;;;;;18.43;8.37;;;;;;;;;;5061454;28;20232;-49
2023/02/11 10:20:01;;;;;;;26.23;8.87;;;;;;;;;;5070719;28;20556;-48
2023/02/11 10:22:52;;;;;;;18.87;8.90;;;;;;;;;;5051739;28;20206;-48
2023/02/11 10:25:43;;;;;;;19.30;8.80;;;;;;;;;;5046015;28;20538;-45
2023/02/11 10:28:17;;;;;;;19.20;8.23;;;;;;;;;;5052205;28;20221;-45
2023/02/11 10:31:08;;;;;;;17.10;8.53;;;;;;;;;;5055055;28;20917;-48
2023/02/11 10:33:59;;;;;;;16.93;8.53;;;;;;;;;;5067636;28;20189;-48
2023/02/11 10:36:34;;;;;;;13.30;8.90;;;;;;;;;;5064788;28;20233;-48
2023/02/11 10:39:15;;;;;;;16.30;9.00;;;;;;;;;;5057795;28;20321;-48
2023/02/11 10:42:01;;;;;;;18.20;9.00;;;;;;;;;;5060187;28;20767;-45
2023/02/11 10:44:42;;;;;;;15.23;9.00;;;;;;;;;;5067975;28;20186;-45
2023/02/11 10:47:22;;;;;;;16.27;8.80;;;;;;;;;;5031217;28;20194;-44
2023/02/11 10:50:22;;;;;;;15.33;8.83;;;;;;;;;;5066204;28;20229;-45
2023/02/11 10:52:59;;;;;;;16.70;8.90;;;;;;;;;;5065663;28;20216;-49
2023/02/11 10:55:40;;;;;;;15.03;9.03;;;;;;;;;;5069554;28;20260;-45
2023/02/11 10:58:22;;;;;;;15.30;9.23;;;;;;;;;;5071995;28;20259;-45
2023/02/11 11:00:55;;;;;;;16.77;8.97;;;;;;;;;;5061448;28;20218;-48
2023/02/11 11:03:39;;;;;;;16.60;10.23;;;;;;;;;;5045136;28;20705;-48
2023/02/11 11:06:10;;;;;;;11.90;8.93;;;;;;;;;;5062057;28;20210;-44
2023/02/11 11:08:43;;;;;;;17.27;10.37;;;;;;;;;;5065885;28;20202;-44
2023/02/11 11:11:15;;;;;;;18.30;10.23;;;;;;;;;;5064867;28;20243;-45
2023/02/11 11:14:03;;;;;;;14.90;10.03;;;;;;;;;;5045976;28;20232;-45
2023/02/11 11:16:36;;;;;;;17.83;9.90;;;;;;;;;;5054194;28;20817;-48
2023/02/11 11:19:09;;;;;;;17.30;9.27;;;;;;;;;;5041876;28;20190;-48
2023/02/11 11:21:41;;;;;;;17.47;10.23;;;;;;;;;;5060954;28;20318;-48
2023/02/11 11:24:34;;;;;;;14.87;9.50;;;;;;;;;;5057661;28;20225;-48
2023/02/11 11:27:04;;;;;;;17.60;9.90;;;;;;;;;;5058573;28;20225;-48
2023/02/11 11:29:36;;;;;;;15.07;10.47;;;;;;;;;;5060598;28;20206;-48
2023/02/11 11:32:26;;;;;;;15.83;9.87;;;;;;;;;;5059855;28;20209;-44
2023/02/11 11:35:06;;;;;;;14.63;10.13;;;;;;;;;;5061291;28;20543;-44
2023/02/11 11:37:37;;;;;;;16.17;9.60;;;;;;;;;;5043582;28;20229;-45
2023/02/11 11:40:34;;;;;;;15.30;9.43;;;;;;;;;;5044082;28;20220;-44
2023/02/11 11:43:15;;;;;;;13.57;9.63;;;;;;;;;;5062431;28;20290;-45
2023/02/11 11:45:56;;;;;;;16.47;9.40;;;;;;;;;;5068515;28;20615;-45
2023/02/11 11:48:32;;;;;;;17.43;9.90;;;;;;;;;;5067372;28;20204;-45
2023/02/11 11:51:07;;;;;;;15.33;9.87;;;;;;;;;;5065137;28;20209;-48
2023/02/11 11:54:13;;;;;;;15.63;9.60;;;;;;;;;;5057398;28;20217;-48
2023/02/11 11:57:01;;;;;;;17.50;10.67;;;;;;;;;;5048044;28;20201;-48
2023/02/11 11:59:31;;;;;;;16.47;10.20;;;;;;;;;;5068625;28;20197;-48
2023/02/11 12:02:03;;;;;;;15.20;10.23;;;;;;;;;;5068362;28;20232;-48
2023/02/11 12:04:42;;;;;;;15.33;10.17;;;;;;;;;;5071422;28;20201;-48
2023/02/11 12:07:39;;;;;;;16.97;10.50;;;;;;;;;;5046102;28;20221;-48
2023/02/11 12:10:22;;;;;;;16.33;9.87;;;;;;;;;;5071286;28;20201;-45
2023/02/11 12:12:53;;;;;;;14.83;10.00;;;;;;;;;;5068947;28;20654;-44
2023/02/11 12:15:37;;;;;;;15.07;10.97;;;;;;;;;;5065751;28;20213;-48
2023/02/11 12:18:11;;;;;;;17.17;10.40;;;;;;;;;;5070063;28;20697;-48
2023/02/11 12:20:51;;;;;;;13.60;10.27;;;;;;;;;;5065026;28;20190;-48
2023/02/11 12:23:40;;;;;;;12.40;9.87;;;;;;;;;;5063876;28;20272;-48
2023/02/11 12:26:23;;;;;;;14.47;10.37;;;;;;;;;;5054020;28;20198;-45
2023/02/11 12:29:10;;;;;;;15.80;10.40;;;;;;;;;;5064610;28;20266;-45
2023/02/11 12:31:54;;;;;;;14.50;10.10;;;;;;;;;;5058051;28;20204;-45
2023/02/11 12:34:29;;;;;;;14.30;10.33;;;;;;;;;;5068730;28;20609;-45
2023/02/11 12:37:09;;;;;;;14.23;10.27;;;;;;;;;;5066932;28;20315;-48
2023/02/11 12:39:38;;;;;;;17.20;10.60;;;;;;;;;;5061083;28;20210;-48
2023/02/11 12:45:07;;;;;;;13.23;10.27;;;;;;;;;;5063023;28;20692;-45
2023/02/11 12:48:00;;;;;;;13.27;9.43;;;;;;;;;;5062711;28;20210;-44
2023/02/11 12:50:30;;;;;;;12.77;9.77;;;;;;;;;;5058728;28;20217;-48
2023/02/11 12:53:19;;;;;;;14.93;10.03;;;;;;;;;;5062828;28;20886;-48
2023/02/11 12:55:52;;;;;;;14.03;10.10;;;;;;;;;;5062732;28;20654;-48
2023/02/11 12:58:24;;;;;;;14.70;9.90;;;;;;;;;;5028803;28;20271;-48
2023/02/11 13:01:16;;;;;;;15.87;10.43;;;;;;;;;;5041606;28;20810;-48
2023/02/11 13:03:53;;;;;;;13.33;10.33;;;;;;;;;;5046232;28;20242;-48
2023/02/11 13:06:41;;;;;;;15.13;9.93;;;;;;;;;;5064233;28;20212;-48
2023/02/11 13:09:19;;;;;;;14.67;11.20;;;;;;;;;;5062902;28;20282;-48
2023/02/11 13:11:56;;;;;;;13.70;10.33;;;;;;;;;;5048620;28;20201;-44
2023/02/11 13:14:31;;;;;;;13.10;10.23;;;;;;;;;;5044170;28;20225;-44
2023/02/11 13:17:00;;;;;;;13.47;10.03;;;;;;;;;;5047982;28;20205;-45
2023/02/11 13:19:38;;;;;;;14.83;10.67;;;;;;;;;;5062500;28;20662;-45
2023/02/11 13:22:32;;;;;;;13.97;10.30;;;;;;;;;;5064971;28;20335;-48
2023/02/11 13:25:18;;;;;;;13.73;10.13;;;;;;;;;;5063356;28;20190;-49
2023/02/11 13:28:09;;;;;;;15.50;10.20;;;;;;;;;;5065597;28;21397;-48
2023/02/11 13:30:46;;;;;;;15.53;10.47;;;;;;;;;;5066092;28;20559;-45
2023/02/11 13:33:38;;;;;;;14.63;10.47;;;;;;;;;;5063283;28;20904;-44
2023/02/11 13:36:33;;;;;;;15.20;10.27;;;;;;;;;;5064087;28;20649;-48
2023/02/11 13:39:08;;;;;;;14.73;9.90;;;;;;;;;;5057630;28;20221;-49
2023/02/11 13:41:44;;;;;;;13.50;10.10;;;;;;;;;;5063624;28;20284;-48
2023/02/11 13:44:18;;;;;;;13.27;10.43;;;;;;;;;;5045486;28;21036;-48
2023/02/11 13:47:03;;;;;;;18.47;9.97;;;;;;;;;;5069751;28;20549;-44
2023/02/11 13:49:39;;;;;;;14.10;10.07;;;;;;;;;;5046433;28;20285;-45
2023/02/11 13:52:25;;;;;;;13.57;9.67;;;;;;;;;;5046457;28;20185;-48
2023/02/11 13:54:58;;;;;;;13.33;10.27;;;;;;;;;;5073121;28;20190;-48
2023/02/11 13:57:41;;;;;;;13.07;9.93;;;;;;;;;;5068683;28;20281;-48
2023/02/11 14:00:42;;;;;;;17.23;10.83;;;;;;;;;;5050815;28;20201;-44
2023/02/11 14:09:07;;;;;;;14.50;9.70;;;;;;;;;;5069159;28;20958;-47
2023/02/11 14:11:54;;;;;;;17.57;10.40;;;;;;;;;;5072325;28;20278;-50
2023/02/11 14:14:27;;;;;;;14.30;10.73;;;;;;;;;;5065117;28;20655;-48
2023/02/11 14:17:17;;;;;;;15.27;10.50;;;;;;;;;;5070994;28;20193;-44
2023/02/11 14:19:48;;;;;;;15.90;11.90;;;;;;;;;;5072876;28;20193;-44
2023/02/11 14:22:40;;;;;;;16.90;11.23;;;;;;;;;;5051220;28;20221;-47
2023/02/11 14:25:23;;;;;;;13.87;11.10;;;;;;;;;;5056432;28;20218;-47
2023/02/11 14:28:04;;;;;;;18.57;12.00;;;;;;;;;;5051097;28;20194;-50
2023/02/11 14:30:59;;;;;;;16.70;11.87;;;;;;;;;;5064430;28;20693;-47
2023/02/11 14:33:40;;;;;;;17.33;12.43;;;;;;;;;;5063734;28;20664;-47
2023/02/11 14:36:16;;;;;;;19.70;13.10;;;;;;;;;;5067455;28;20228;-46
2023/02/11 14:38:58;;;;;;;20.40;13.80;;;;;;;;;;5061546;28;20232;-46
2023/02/11 14:41:31;;;;;;;18.87;13.30;;;;;;;;;;5065341;28;20535;-46
2023/02/11 14:44:04;;;;;;;15.73;13.50;;;;;;;;;;5054491;28;20249;-46
2023/02/11 14:46:37;;;;;;;20.53;15.27;;;;;;;;;;5070378;28;20189;-50
2023/02/11 14:49:16;;;;;;;20.83;15.03;;;;;;;;;;5070410;28;20196;-50
2023/02/11 14:51:45;;;;;;;22.70;16.23;;;;;;;;;;5068059;28;20625;-45
2023/02/11 14:54:21;;;;;;;20.60;16.30;;;;;;;;;;5065677;28;20201;-45
2023/02/11 14:57:13;;;;;;;20.90;16.17;;;;;;;;;;5050987;28;20264;-48
2023/02/11 15:00:04;;;;;;;20.67;17.20;;;;;;;;;;5064634;28;20193;-49
2023/02/11 15:02:37;;;;;;;23.40;17.57;;;;;;;;;;5062895;28;20208;-45
2023/02/11 15:05:28;;;;;;;25.50;17.30;;;;;;;;;;5067208;28;20194;-45
2023/02/11 15:08:04;;;;;;;25.00;18.00;;;;;;;;;;5069580;28;20197;-45
2023/02/11 15:10:43;;;;;;;23.17;17.70;;;;;;;;;;5067654;28;20522;-44
2023/02/11 15:13:19;;;;;;;23.57;17.83;;;;;;;;;;5061396;28;20193;-45
2023/02/11 15:15:53;;;;;;;24.30;18.17;;;;;;;;;;5054326;28;20205;-48
2023/02/11 15:18:26;;;;;;;22.20;16.87;;;;;;;;;;5034833;28;20198;-48
2023/02/11 15:21:00;;;;;;;21.83;17.07;;;;;;;;;;5049910;28;20205;-48
2023/02/11 15:23:33;;;;;;;26.23;17.53;;;;;;;;;;5065206;28;20761;-48
2023/02/11 15:26:20;;;;;;;21.47;16.43;;;;;;;;;;5060943;28;20199;-48
2023/02/11 15:28:53;;;;;;;19.43;16.20;;;;;;;;;;5064279;28;20231;-48
2023/02/11 15:31:25;;;;;;;17.97;14.77;;;;;;;;;;5062148;28;20193;-48
2023/02/11 15:34:06;;;;;;;19.57;14.77;;;;;;;;;;5068989;28;20271;-48
2023/02/11 15:36:48;;;;;;;18.40;14.63;;;;;;;;;;5048358;28;20886;-48
2023/02/11 15:39:18;;;;;;;18.20;14.53;;;;;;;;;;5062676;28;20210;-48
2023/02/11 15:41:47;;;;;;;17.97;14.50;;;;;;;;;;5066763;28;20272;-44